Time;durP1;ratioP1;P1;durP2;ratioP2;P2;SDS_P1;SDS_P2;PMS_P1;PMS_P2;Temp;Humidity;BMP_temperature;BMP_pressure;BME280_temperature;BME280_humidity;BME280_pressure;Samples;Min_cycle;Max_cycle;Signal;HPM_P1;HPM_P2
2023/03/27 00:01:25;;;;;;;16.50;8.90;;;6.00;99.90;;;;;;4955608;29;20232;-79
2023/03/27 00:03:52;;;;;;;16.73;9.40;;;6.00;99.90;;;;;;4937935;29;20227;-75
2023/03/27 00:06:20;;;;;;;15.67;8.93;;;6.00;99.90;;;;;;4938425;29;20278;-78
2023/03/27 00:08:49;;;;;;;15.53;8.93;;;6.00;99.90;;;;;;4938291;29;20225;-79
2023/03/27 00:11:18;;;;;;;17.67;8.83;;;5.90;99.90;;;;;;4939606;29;20283;-75
2023/03/27 00:13:44;;;;;;;19.83;9.97;;;6.00;99.90;;;;;;4928790;29;20238;-77
2023/03/27 00:16:20;;;;;;;16.87;9.53;;;6.00;99.90;;;;;;4951574;29;20266;-80
2023/03/27 00:18:47;;;;;;;17.90;9.73;;;6.00;99.90;;;;;;4919424;29;20211;-80
2023/03/27 00:21:14;;;;;;;17.57;9.33;;;6.00;99.90;;;;;;4919082;29;20316;-79
2023/03/27 00:23:41;;;;;;;15.83;9.30;;;5.90;99.90;;;;;;4919161;29;20204;-78
2023/03/27 00:26:09;;;;;;;17.17;9.03;;;5.90;99.90;;;;;;4919148;29;20222;-80
2023/03/27 00:28:37;;;;;;;20.37;11.03;;;5.90;99.90;;;;;;4936102;29;20205;-79
2023/03/27 00:31:11;;;;;;;19.13;10.67;;;5.90;99.90;;;;;;4915059;29;20205;-78
2023/03/27 00:33:41;;;;;;;19.60;10.73;;;5.70;99.90;;;;;;4921757;29;20202;-80
2023/03/27 00:36:09;;;;;;;20.47;10.87;;;5.60;99.90;;;;;;4952405;28;20599;-76
2023/03/27 00:38:38;;;;;;;20.13;11.27;;;5.60;99.90;;;;;;4935484;29;20542;-77
2023/03/27 00:41:06;;;;;;;20.77;11.60;;;5.60;99.90;;;;;;4950782;29;20668;-76
2023/03/27 00:43:34;;;;;;;19.63;10.20;;;5.60;99.90;;;;;;4954570;29;20204;-76
2023/03/27 00:46:27;;;;;;;16.57;10.60;;;5.60;99.90;;;;;;4937259;29;20261;-76
2023/03/27 00:48:55;;;;;;;17.43;10.33;;;5.60;99.90;;;;;;4919298;29;20667;-76
2023/03/27 00:51:25;;;;;;;17.23;10.07;;;5.70;99.90;;;;;;4902815;29;20211;-76
2023/03/27 00:53:54;;;;;;;19.70;10.87;;;5.70;99.90;;;;;;4918614;29;20203;-76
2023/03/27 00:56:22;;;;;;;18.00;10.77;;;5.70;99.90;;;;;;4918470;29;20553;-77
2023/03/27 00:58:58;;;;;;;19.67;11.30;;;5.60;99.90;;;;;;4935520;29;20686;-77
2023/03/27 01:01:35;;;;;;;21.17;10.83;;;5.60;99.90;;;;;;4918453;28;20285;-75
2023/03/27 01:04:50;;;;;;;21.13;11.50;;;5.50;99.90;;;;;;4875139;28;20204;-76
2023/03/27 01:07:17;;;;;;;20.83;10.57;;;5.50;99.90;;;;;;4939217;29;20570;-77
2023/03/27 01:09:44;;;;;;;20.97;11.27;;;5.50;99.90;;;;;;4967042;28;20195;-80
2023/03/27 01:12:29;;;;;;;23.40;11.67;;;5.40;99.90;;;;;;4953699;28;20208;-82
2023/03/27 01:15:03;;;;;;;20.43;11.53;;;5.40;99.90;;;;;;4949870;28;20206;-81
2023/03/27 01:17:32;;;;;;;23.93;12.10;;;5.40;99.90;;;;;;4959138;28;20266;-79
2023/03/27 01:20:29;;;;;;;20.17;11.87;;;5.30;99.90;;;;;;4946756;28;20295;-81
2023/03/27 01:23:16;;;;;;;22.53;11.93;;;5.30;99.90;;;;;;4955717;28;20293;-77
2023/03/27 01:26:09;;;;;;;23.27;11.33;;;5.20;99.90;;;;;;4953162;28;20280;-73
2023/03/27 01:28:49;;;;;;;22.00;11.67;;;5.20;99.90;;;;;;4961466;28;20193;-73
2023/03/27 01:31:26;;;;;;;26.20;12.07;;;5.10;99.90;;;;;;4961466;28;20663;-73
2023/03/27 01:34:30;;;;;;;22.13;11.07;;;5.20;99.90;;;;;;4961357;28;20194;-80
2023/03/27 01:37:20;;;;;;;20.57;11.70;;;5.20;99.90;;;;;;4944053;28;20209;-79
2023/03/27 01:40:03;;;;;;;21.53;10.87;;;5.00;99.90;;;;;;4931622;28;20635;-77
2023/03/27 01:42:46;;;;;;;21.77;11.47;;;5.00;99.90;;;;;;4942911;28;20201;-73
2023/03/27 01:45:29;;;;;;;20.43;11.00;;;4.90;99.90;;;;;;4932338;29;20206;-73
2023/03/27 01:48:09;;;;;;;20.40;11.33;;;5.00;99.90;;;;;;4963146;28;20259;-72
2023/03/27 01:50:49;;;;;;;19.53;10.87;;;5.00;99.90;;;;;;4949235;28;20517;-73
2023/03/27 01:53:35;;;;;;;19.00;10.70;;;5.00;99.90;;;;;;4977001;28;20225;-73
2023/03/27 01:56:17;;;;;;;20.17;10.50;;;5.00;99.90;;;;;;4951844;29;20591;-73
2023/03/27 01:58:48;;;;;;;20.20;10.10;;;5.00;99.90;;;;;;4940361;29;20190;-72
2023/03/27 02:01:21;;;;;;;19.93;10.17;;;5.00;99.90;;;;;;4921504;29;20298;-72
2023/03/27 02:03:53;;;;;;;18.80;10.87;;;5.00;99.90;;;;;;4921383;29;20210;-72
2023/03/27 02:06:22;;;;;;;17.93;9.70;;;4.90;99.90;;;;;;4938189;29;20675;-72
2023/03/27 02:08:59;;;;;;;20.73;10.57;;;5.00;99.90;;;;;;4940274;29;20205;-73
2023/03/27 02:11:32;;;;;;;19.20;10.20;;;5.00;99.90;;;;;;4957334;29;20218;-72
2023/03/27 02:14:11;;;;;;;20.80;10.93;;;4.90;99.90;;;;;;4940094;29;20214;-71
2023/03/27 02:16:44;;;;;;;19.43;10.77;;;4.90;99.90;;;;;;4940030;29;20215;-71
2023/03/27 02:19:34;;;;;;;20.23;10.80;;;4.80;99.90;;;;;;4939869;29;20197;-72
2023/03/27 02:22:02;;;;;;;19.30;10.47;;;4.90;99.90;;;;;;4939891;29;20202;-70
2023/03/27 02:24:29;;;;;;;18.67;10.67;;;4.90;99.90;;;;;;4939875;29;20654;-72
2023/03/27 02:27:05;;;;;;;21.03;11.20;;;4.80;99.90;;;;;;4957046;29;20234;-74
2023/03/27 02:29:53;;;;;;;22.07;11.13;;;4.80;99.90;;;;;;4939976;29;20201;-73
2023/03/27 02:32:30;;;;;;;18.93;10.60;;;4.70;99.90;;;;;;4939938;29;20201;-74
2023/03/27 02:35:02;;;;;;;19.53;10.73;;;4.80;99.90;;;;;;4939534;29;20200;-78
2023/03/27 02:37:56;;;;;;;21.50;10.93;;;4.80;99.90;;;;;;4956789;29;20198;-75
2023/03/27 02:40:34;;;;;;;19.97;11.23;;;4.80;99.90;;;;;;4939663;29;20643;-77
2023/03/27 02:43:17;;;;;;;19.57;10.57;;;4.90;99.90;;;;;;4956598;29;20557;-76
2023/03/27 02:46:13;;;;;;;20.60;11.30;;;4.90;99.90;;;;;;4939564;29;20233;-72
2023/03/27 02:48:47;;;;;;;21.77;11.63;;;4.80;99.90;;;;;;4938847;29;20203;-79
2023/03/27 02:51:21;;;;;;;19.77;11.37;;;4.80;99.90;;;;;;4939371;28;20319;-73
2023/03/27 02:53:57;;;;;;;20.53;11.43;;;4.70;99.90;;;;;;4940026;29;20214;-73
2023/03/27 02:56:30;;;;;;;19.63;11.17;;;4.80;99.90;;;;;;4938948;28;20204;-80
2023/03/27 02:59:04;;;;;;;20.50;11.43;;;4.80;99.90;;;;;;4939572;29;20210;-79
2023/03/27 03:01:33;;;;;;;20.23;11.37;;;4.70;99.90;;;;;;4940217;29;20212;-81
2023/03/27 03:04:07;;;;;;;21.73;11.73;;;4.80;99.90;;;;;;4940338;29;20227;-77
2023/03/27 03:06:35;;;;;;;21.07;11.47;;;4.80;99.90;;;;;;4957130;29;20587;-79
2023/03/27 03:09:05;;;;;;;18.57;11.07;;;4.80;99.90;;;;;;4939685;29;20209;-74
2023/03/27 03:11:34;;;;;;;21.70;11.70;;;4.90;99.90;;;;;;4939126;29;20214;-72
2023/03/27 03:14:08;;;;;;;21.83;11.60;;;4.90;99.90;;;;;;4939041;29;20240;-77
2023/03/27 03:16:35;;;;;;;20.97;11.37;;;4.90;99.90;;;;;;4939483;29;20208;-79
2023/03/27 03:19:06;;;;;;;23.70;11.63;;;4.80;99.90;;;;;;4948118;23;20330;-76
2023/03/27 03:21:40;;;;;;;20.53;11.77;;;4.80;99.90;;;;;;4956369;29;20285;-75
2023/03/27 03:24:07;;;;;;;21.43;11.63;;;4.80;99.90;;;;;;4955020;28;20223;-72
2023/03/27 03:26:38;;;;;;;21.57;11.63;;;4.70;99.90;;;;;;4939399;29;20223;-72
2023/03/27 03:29:05;;;;;;;19.40;11.37;;;4.70;99.90;;;;;;4975489;28;20196;-72
2023/03/27 03:31:44;;;;;;;21.83;11.60;;;4.70;99.90;;;;;;4957923;28;20206;-73
2023/03/27 03:34:17;;;;;;;20.77;11.87;;;4.60;99.90;;;;;;4958467;28;20188;-73
2023/03/27 03:36:48;;;;;;;20.97;11.43;;;4.60;99.90;;;;;;4942047;28;20617;-75
2023/03/27 03:39:17;;;;;;;21.07;11.33;;;4.60;99.90;;;;;;4975273;28;20196;-74
2023/03/27 03:41:44;;;;;;;23.13;11.70;;;4.70;99.90;;;;;;4957509;28;20206;-74
2023/03/27 03:44:16;;;;;;;21.20;12.17;;;4.70;99.90;;;;;;4942068;28;20196;-78
2023/03/27 03:46:49;;;;;;;24.30;11.83;;;4.70;99.90;;;;;;4943115;28;20260;-76
2023/03/27 03:49:16;;;;;;;23.27;11.80;;;4.70;99.90;;;;;;4974820;28;20196;-75
2023/03/27 03:51:44;;;;;;;19.53;11.80;;;4.70;99.90;;;;;;4942490;28;20208;-75
2023/03/27 03:54:11;;;;;;;20.63;11.03;;;4.70;99.90;;;;;;4975747;28;20550;-77
2023/03/27 03:56:42;;;;;;;20.53;11.93;;;4.70;99.90;;;;;;4958573;28;20205;-77
2023/03/27 03:59:12;;;;;;;21.07;11.87;;;4.50;99.90;;;;;;4958627;28;20232;-77
2023/03/27 04:01:39;;;;;;;22.73;12.07;;;4.50;99.90;;;;;;4958095;28;20208;-76
2023/03/27 04:04:08;;;;;;;19.57;11.73;;;4.50;99.90;;;;;;4957599;28;20224;-72
2023/03/27 04:06:40;;;;;;;22.03;12.23;;;4.60;99.90;;;;;;4956397;28;20246;-75
2023/03/27 04:09:08;;;;;;;23.33;12.60;;;4.50;99.90;;;;;;4961538;28;20204;-72
2023/03/27 04:11:40;;;;;;;22.60;12.10;;;4.60;99.90;;;;;;4938064;29;20199;-78
2023/03/27 04:14:08;;;;;;;22.30;12.33;;;4.60;99.90;;;;;;4937718;29;20311;-77
2023/03/27 04:16:36;;;;;;;23.13;12.70;;;4.60;99.90;;;;;;4955123;29;20187;-76
2023/03/27 04:19:04;;;;;;;23.67;12.30;;;4.60;99.90;;;;;;4954637;28;20379;-73
2023/03/27 04:21:32;;;;;;;22.80;12.40;;;4.70;99.90;;;;;;4937754;29;20197;-73
2023/03/27 04:24:01;;;;;;;22.93;13.17;;;4.70;99.90;;;;;;4955004;29;20211;-73
2023/03/27 04:26:28;;;;;;;22.60;12.27;;;4.70;99.90;;;;;;4937744;29;20215;-73
2023/03/27 04:28:55;;;;;;;20.27;12.10;;;4.70;99.90;;;;;;4955292;29;20650;-73
2023/03/27 04:31:22;;;;;;;22.70;12.60;;;4.70;99.90;;;;;;4938536;29;20209;-74
2023/03/27 04:33:51;;;;;;;23.60;11.90;;;4.80;99.90;;;;;;4937840;29;20198;-73
2023/03/27 04:36:18;;;;;;;23.43;12.53;;;4.90;99.90;;;;;;4936365;29;20202;-75
2023/03/27 04:38:46;;;;;;;21.90;12.23;;;4.90;99.90;;;;;;4938235;29;20686;-74
2023/03/27 04:41:13;;;;;;;22.27;12.37;;;4.90;99.90;;;;;;4937235;29;20202;-73
2023/03/27 04:43:40;;;;;;;20.50;11.67;;;5.00;99.90;;;;;;4954638;29;20188;-73
2023/03/27 04:46:08;;;;;;;19.90;11.83;;;5.10;99.90;;;;;;4953700;29;20348;-74
2023/03/27 04:48:37;;;;;;;20.53;11.80;;;5.10;99.90;;;;;;4952791;29;20242;-79
2023/03/27 04:51:05;;;;;;;21.97;12.03;;;5.20;99.90;;;;;;4937569;29;20236;-73
2023/03/27 04:53:35;;;;;;;19.30;11.60;;;5.20;99.90;;;;;;4937005;29;20221;-74
2023/03/27 04:56:04;;;;;;;22.60;11.50;;;5.20;99.90;;;;;;4954664;29;20279;-74
2023/03/27 04:58:31;;;;;;;20.80;11.40;;;5.20;99.90;;;;;;4937077;29;20300;-76
2023/03/27 05:01:01;;;;;;;19.97;11.57;;;5.20;99.90;;;;;;4937309;29;20268;-73
2023/03/27 05:03:28;;;;;;;22.13;11.27;;;5.30;99.90;;;;;;4937396;29;20637;-72
2023/03/27 05:05:55;;;;;;;18.93;11.07;;;5.30;99.90;;;;;;4937010;29;20250;-74
2023/03/27 05:08:21;;;;;;;23.27;10.97;;;5.30;99.90;;;;;;4937240;29;20220;-81
2023/03/27 05:10:48;;;;;;;20.00;11.27;;;5.40;99.90;;;;;;4936829;29;20198;-79
2023/03/27 05:13:15;;;;;;;20.87;10.93;;;5.50;99.90;;;;;;4954196;29;20321;-76
2023/03/27 05:15:42;;;;;;;21.23;11.57;;;5.60;99.90;;;;;;4937285;29;20220;-73
2023/03/27 05:18:09;;;;;;;22.10;11.53;;;5.60;99.90;;;;;;4936845;29;20201;-72
2023/03/27 05:20:36;;;;;;;20.47;11.17;;;5.60;99.90;;;;;;4953951;28;20267;-78
2023/03/27 05:23:03;;;;;;;19.00;11.27;;;5.50;99.90;;;;;;4937010;29;20208;-76
2023/03/27 05:25:44;;;;;;;21.83;11.13;;;5.50;99.90;;;;;;4936845;29;20207;-80
2023/03/27 05:28:27;;;;;;;18.80;10.80;;;5.60;99.90;;;;;;4952844;29;20235;-77
2023/03/27 05:30:55;;;;;;;23.73;11.63;;;5.60;99.90;;;;;;4937041;29;20207;-77
2023/03/27 05:33:22;;;;;;;18.67;11.30;;;5.70;99.90;;;;;;4936893;29;20225;-73
2023/03/27 05:35:51;;;;;;;19.40;11.57;;;5.80;99.90;;;;;;4937102;29;20598;-79
2023/03/27 05:38:18;;;;;;;20.20;10.77;;;5.80;99.90;;;;;;4954205;29;20565;-79
2023/03/27 05:40:45;;;;;;;19.37;11.00;;;5.90;99.90;;;;;;4954337;29;20231;-75
2023/03/27 05:43:12;;;;;;;19.17;10.33;;;6.10;99.90;;;;;;4954236;29;20217;-77
2023/03/27 05:45:39;;;;;;;18.13;10.07;;;6.10;99.90;;;;;;4936916;29;20215;-75
2023/03/27 05:48:07;;;;;;;17.23;9.90;;;6.20;99.90;;;;;;4953856;29;20563;-80
2023/03/27 05:50:34;;;;;;;17.90;10.27;;;6.30;99.90;;;;;;4937004;29;20199;-76
2023/03/27 05:53:03;;;;;;;16.60;9.67;;;6.40;99.90;;;;;;4954416;29;20209;-79
2023/03/27 05:55:30;;;;;;;20.53;9.73;;;6.40;99.90;;;;;;4937011;29;20572;-79
2023/03/27 05:57:57;;;;;;;15.20;8.23;;;6.40;99.90;;;;;;4936649;29;20203;-77
2023/03/27 06:00:26;;;;;;;16.60;8.77;;;6.40;99.90;;;;;;4935899;28;20210;-79
2023/03/27 06:02:57;;;;;;;14.70;7.90;;;6.40;99.90;;;;;;4935062;29;20209;-75
2023/03/27 06:05:26;;;;;;;14.93;7.20;;;6.50;99.90;;;;;;4951728;29;20221;-77
2023/03/27 06:08:01;;;;;;;12.97;7.03;;;6.60;99.90;;;;;;4936709;29;20279;-78
2023/03/27 06:10:33;;;;;;;13.63;6.03;;;6.60;99.90;;;;;;4953930;29;20596;-77
2023/03/27 06:13:02;;;;;;;14.10;6.43;;;6.70;99.90;;;;;;4935224;29;20264;-76
2023/03/27 06:15:29;;;;;;;13.30;6.27;;;6.70;99.90;;;;;;4936693;29;20217;-75
2023/03/27 06:17:56;;;;;;;10.53;5.83;;;6.70;99.90;;;;;;4936276;29;20235;-76
2023/03/27 06:20:25;;;;;;;12.17;6.07;;;6.70;99.90;;;;;;4936123;29;20618;-74
2023/03/27 06:22:55;;;;;;;14.57;6.40;;;6.70;99.90;;;;;;4936591;29;20209;-72
2023/03/27 06:25:23;;;;;;;12.57;5.70;;;6.80;99.90;;;;;;4936839;29;20198;-74
2023/03/27 06:27:50;;;;;;;10.23;5.73;;;6.70;99.90;;;;;;4936217;29;20229;-75
2023/03/27 06:30:20;;;;;;;9.80;5.63;;;6.70;99.90;;;;;;4952036;28;20705;-79
2023/03/27 06:32:58;;;;;;;9.93;5.37;;;6.70;99.90;;;;;;4935374;29;20209;-80
2023/03/27 06:35:28;;;;;;;11.97;4.80;;;6.70;99.90;;;;;;4953225;29;20205;-78
2023/03/27 06:37:57;;;;;;;12.77;5.10;;;6.80;99.90;;;;;;4939834;29;20206;-79
2023/03/27 06:40:26;;;;;;;10.50;5.33;;;6.90;99.90;;;;;;4939608;29;20201;-79
2023/03/27 06:42:56;;;;;;;10.70;5.30;;;6.90;99.90;;;;;;4939911;29;20241;-79
2023/03/27 06:45:30;;;;;;;9.67;5.23;;;6.80;99.90;;;;;;4939699;29;20190;-77
2023/03/27 06:48:01;;;;;;;12.53;6.00;;;6.80;99.90;;;;;;4956507;29;20232;-74
2023/03/27 06:50:48;;;;;;;10.70;5.50;;;6.90;99.90;;;;;;4943443;29;20674;-72
2023/03/27 06:53:16;;;;;;;10.93;6.70;;;7.00;99.90;;;;;;4930013;29;20285;-72
2023/03/27 06:55:46;;;;;;;16.20;7.93;;;6.80;99.90;;;;;;4956093;29;20209;-78
2023/03/27 06:58:17;;;;;;;18.13;9.57;;;6.70;99.90;;;;;;4956582;29;20210;-73
2023/03/27 07:00:48;;;;;;;17.17;10.80;;;6.60;99.90;;;;;;4939114;29;20205;-76
2023/03/27 07:03:22;;;;;;;20.80;11.40;;;6.60;99.90;;;;;;4955339;29;20270;-77
2023/03/27 07:05:50;;;;;;;19.80;11.33;;;6.60;99.90;;;;;;4939280;29;20196;-74
2023/03/27 07:08:19;;;;;;;18.27;9.87;;;6.70;99.90;;;;;;4956789;29;20218;-73
2023/03/27 07:10:52;;;;;;;15.70;8.60;;;6.70;99.90;;;;;;4932578;29;20254;-78
2023/03/27 07:13:39;;;;;;;13.77;8.00;;;6.60;99.90;;;;;;4937867;29;20224;-72
2023/03/27 07:16:10;;;;;;;15.53;7.83;;;6.70;99.90;;;;;;4938308;29;20197;-73
2023/03/27 07:18:37;;;;;;;13.73;7.40;;;6.70;99.90;;;;;;4948988;28;20202;-71
2023/03/27 07:21:04;;;;;;;16.57;7.83;;;6.80;99.90;;;;;;4935868;29;20215;-72
2023/03/27 07:23:31;;;;;;;16.33;7.63;;;6.80;99.90;;;;;;4954211;29;20216;-70
2023/03/27 07:26:06;;;;;;;19.63;8.87;;;6.80;99.90;;;;;;4955670;29;20264;-71
2023/03/27 07:28:37;;;;;;;14.53;8.23;;;6.80;99.90;;;;;;4938379;29;20240;-70
2023/03/27 07:31:09;;;;;;;15.53;8.20;;;6.90;99.90;;;;;;4934802;29;20193;-72
2023/03/27 07:33:56;;;;;;;18.33;10.03;;;7.10;99.90;;;;;;4933358;29;20667;-71
2023/03/27 07:36:24;;;;;;;20.13;11.30;;;7.30;99.90;;;;;;4954866;29;20198;-73
2023/03/27 07:38:54;;;;;;;23.93;10.93;;;7.40;99.90;;;;;;4932509;29;20582;-71
2023/03/27 07:41:21;;;;;;;23.00;11.03;;;7.40;99.90;;;;;;4937755;29;20265;-73
2023/03/27 07:43:48;;;;;;;18.83;9.10;;;7.50;99.90;;;;;;4937079;29;20209;-73
2023/03/27 07:46:15;;;;;;;18.93;10.60;;;7.60;99.90;;;;;;4937928;29;20555;-70
2023/03/27 07:48:42;;;;;;;21.97;10.40;;;7.50;99.90;;;;;;4921990;29;20280;-72
2023/03/27 07:51:09;;;;;;;24.30;11.27;;;7.50;99.90;;;;;;4936735;29;20225;-70
2023/03/27 07:53:40;;;;;;;16.57;9.33;;;7.70;99.90;;;;;;4954361;29;20672;-69
2023/03/27 07:56:14;;;;;;;18.07;8.90;;;7.90;99.90;;;;;;4908066;29;20238;-70
2023/03/27 07:58:41;;;;;;;15.43;7.50;;;8.00;99.90;;;;;;4936850;29;20220;-69
2023/03/27 08:01:08;;;;;;;14.37;6.67;;;8.00;99.90;;;;;;4933908;29;20198;-69
2023/03/27 08:03:36;;;;;;;14.10;6.30;;;8.00;99.90;;;;;;4937410;29;20186;-70
2023/03/27 08:06:07;;;;;;;12.27;5.93;;;8.00;99.90;;;;;;4934474;29;20187;-70
2023/03/27 08:08:34;;;;;;;12.47;5.97;;;8.00;99.90;;;;;;4935004;29;20206;-69
2023/03/27 08:11:02;;;;;;;14.03;5.20;;;8.10;99.90;;;;;;4937607;29;20205;-75
2023/03/27 08:13:29;;;;;;;9.03;4.40;;;8.10;99.90;;;;;;4937187;29;20211;-71
2023/03/27 08:16:04;;;;;;;14.23;4.70;;;8.30;99.90;;;;;;4954712;29;20245;-73
2023/03/27 08:18:31;;;;;;;10.00;4.27;;;8.20;99.90;;;;;;4936944;29;20194;-71
2023/03/27 08:21:00;;;;;;;11.70;4.17;;;8.10;99.90;;;;;;4954524;29;20194;-72
2023/03/27 08:23:29;;;;;;;10.63;4.80;;;7.70;99.90;;;;;;4937438;29;20189;-71
2023/03/27 08:25:59;;;;;;;9.60;4.20;;;7.60;99.90;;;;;;4954455;29;20194;-74
2023/03/27 08:28:28;;;;;;;11.20;4.47;;;7.50;99.90;;;;;;4954481;29;20210;-74
2023/03/27 08:30:56;;;;;;;10.00;4.50;;;7.50;99.90;;;;;;4936502;29;20199;-73
2023/03/27 08:33:29;;;;;;;12.10;5.10;;;7.90;99.90;;;;;;4954454;29;20190;-71
2023/03/27 08:35:57;;;;;;;13.10;5.07;;;8.10;99.90;;;;;;4954146;29;20193;-75
2023/03/27 08:38:27;;;;;;;9.77;4.57;;;8.50;99.90;;;;;;4936989;29;20206;-75
2023/03/27 08:40:57;;;;;;;8.67;4.40;;;8.80;99.90;;;;;;4936761;29;20285;-77
2023/03/27 08:43:30;;;;;;;11.77;4.20;;;8.70;99.90;;;;;;4936993;29;20206;-74
2023/03/27 08:46:05;;;;;;;11.43;4.40;;;8.70;99.90;;;;;;4927798;29;20248;-74
2023/03/27 08:48:46;;;;;;;9.53;3.80;;;8.30;99.90;;;;;;4931121;29;20278;-74
2023/03/27 08:51:25;;;;;;;9.10;4.53;;;8.70;99.90;;;;;;4935589;29;20293;-75
2023/03/27 08:54:13;;;;;;;12.50;4.10;;;9.20;99.90;;;;;;4936582;29;20594;-74
2023/03/27 08:56:40;;;;;;;7.00;2.97;;;9.40;99.90;;;;;;4932980;29;20205;-71
2023/03/27 08:59:15;;;;;;;6.10;3.03;;;9.50;99.90;;;;;;4946645;29;20206;-74
2023/03/27 09:01:50;;;;;;;8.57;3.70;;;9.50;99.90;;;;;;4915829;29;20438;-77
2023/03/27 09:04:26;;;;;;;8.52;3.35;;;9.30;99.90;;;;;;4953712;29;20445;-74
2023/03/27 09:07:18;;;;;;;7.88;3.20;;;8.80;99.90;;;;;;4952942;29;20536;-71
2023/03/27 09:09:51;;;;;;;6.88;3.33;;;8.30;99.90;;;;;;4935883;29;20453;-73
2023/03/27 09:12:21;;;;;;;7.13;2.70;;;8.10;99.90;;;;;;4954301;29;20230;-74
2023/03/27 09:14:56;;;;;;;8.53;3.13;;;8.10;99.90;;;;;;4937126;29;20210;-74
2023/03/27 09:17:32;;;;;;;6.13;2.63;;;8.10;99.90;;;;;;4952612;29;20190;-81
2023/03/27 09:20:24;;;;;;;5.43;2.60;;;8.10;99.90;;;;;;4933739;29;20602;-75
2023/03/27 09:23:01;;;;;;;6.13;2.30;;;8.00;99.90;;;;;;4876068;29;20313;-71
2023/03/27 09:25:39;;;;;;;5.73;2.50;;;7.70;99.90;;;;;;4874281;29;20216;-72
2023/03/27 09:28:27;;;;;;;4.10;2.27;;;7.50;99.90;;;;;;4872386;29;20236;-75
2023/03/27 09:30:54;;;;;;;4.83;2.40;;;7.50;99.90;;;;;;4874447;29;20732;-74
2023/03/27 09:33:23;;;;;;;6.63;2.90;;;7.90;99.90;;;;;;4876029;29;20708;-71
2023/03/27 09:35:50;;;;;;;5.40;2.90;;;8.00;99.90;;;;;;4876157;29;20704;-73
2023/03/27 09:38:30;;;;;;;5.83;3.00;;;7.70;99.90;;;;;;4876374;29;20666;-85
2023/03/27 09:41:01;;;;;;;7.47;2.53;;;7.30;99.90;;;;;;4891381;29;20302;-74
2023/03/27 09:43:59;;;;;;;5.50;2.90;;;7.20;99.90;;;;;;4872118;29;20243;-73
2023/03/27 09:46:27;;;;;;;5.77;2.73;;;6.90;99.90;;;;;;4822882;29;20612;-81
2023/03/27 09:49:00;;;;;;;5.33;2.80;;;6.90;99.90;;;;;;4822905;29;20463;-84
2023/03/27 09:51:41;;;;;;;4.23;2.30;;;7.00;99.90;;;;;;4835572;29;20720;-73
2023/03/27 09:54:16;;;;;;;5.82;2.70;;;7.00;99.90;;;;;;4835398;29;20465;-73
2023/03/27 09:56:53;;;;;;;6.00;2.60;;;6.90;99.90;;;;;;4837348;29;20213;-73
2023/03/27 09:59:31;;;;;;;6.53;2.40;;;7.00;99.90;;;;;;4837528;29;20278;-69
2023/03/27 10:02:08;;;;;;;5.17;2.30;;;6.60;99.90;;;;;;4894332;29;20211;-82
2023/03/27 10:04:35;;;;;;;8.60;2.77;;;6.60;99.90;;;;;;4878938;29;20294;-73
2023/03/27 10:07:07;;;;;;;7.07;2.80;;;6.60;99.90;;;;;;4862472;29;20205;-71
2023/03/27 10:09:35;;;;;;;5.53;2.73;;;6.40;99.90;;;;;;4879661;29;20228;-72
2023/03/27 10:12:03;;;;;;;4.83;2.80;;;6.80;99.90;;;;;;4879258;29;20919;-77
2023/03/27 10:14:34;;;;;;;6.95;3.03;;;7.20;99.90;;;;;;4877657;29;20904;-72
2023/03/27 10:17:03;;;;;;;4.00;2.50;;;7.10;99.90;;;;;;4876388;29;20203;-72
2023/03/27 10:19:38;;;;;;;4.77;2.87;;;6.30;99.90;;;;;;4880833;29;20232;-81
2023/03/27 10:22:26;;;;;;;5.53;2.90;;;6.70;99.90;;;;;;4862829;29;20480;-74
2023/03/27 10:24:59;;;;;;;5.38;2.42;;;6.80;99.90;;;;;;4932012;29;20500;-75
2023/03/27 10:27:35;;;;;;;3.47;2.10;;;6.90;99.90;;;;;;4956508;29;20189;-75
2023/03/27 10:30:22;;;;;;;5.35;2.80;;;6.60;99.90;;;;;;4938572;29;20442;-71
2023/03/27 10:32:49;;;;;;;4.83;2.30;;;6.40;99.90;;;;;;4939426;29;20206;-75
2023/03/27 10:35:22;;;;;;;5.00;2.67;;;6.60;99.90;;;;;;4955571;29;20464;-72
2023/03/27 10:37:50;;;;;;;5.80;2.50;;;6.80;99.90;;;;;;4955360;29;20202;-72
2023/03/27 10:40:20;;;;;;;4.53;2.30;;;6.60;99.90;;;;;;4939309;29;20652;-78
2023/03/27 10:42:48;;;;;;;5.37;2.27;;;6.20;99.90;;;;;;4953824;29;20231;-88
2023/03/27 10:45:20;;;;;;;4.97;2.55;;;6.50;99.90;;;;;;4938621;29;20458;-79
2023/03/27 10:47:52;;;;;;;4.60;2.43;;;6.70;99.90;;;;;;4938931;29;20193;-74
2023/03/27 10:50:37;;;;;;;5.27;2.00;;;7.10;99.90;;;;;;4941183;29;20225;-84
2023/03/27 10:53:15;;;;;;;7.87;2.37;;;6.80;99.90;;;;;;4954175;29;20203;-75
2023/03/27 10:55:50;;;;;;;3.23;2.20;;;6.80;99.90;;;;;;4957378;29;20201;-79
2023/03/27 10:58:22;;;;;;;6.00;2.30;;;7.40;99.90;;;;;;4935006;29;20216;-83
2023/03/27 11:01:11;;;;;;;4.03;1.87;;;7.70;99.90;;;;;;4950597;29;20796;-74
2023/03/27 11:03:48;;;;;;;3.50;1.97;;;7.20;99.90;;;;;;4944644;29;20242;-75
2023/03/27 11:06:17;;;;;;;4.53;2.10;;;7.00;99.90;;;;;;4938927;29;20293;-75
2023/03/27 11:15:46;;;;;;;4.40;1.80;;;7.50;99.90;;;;;;4956713;23;20229;-74
2023/03/27 11:18:36;;;;;;;4.30;1.90;;;7.60;99.90;;;;;;4929411;29;20324;-75
2023/03/27 11:21:34;;;;;;;3.10;2.10;;;8.20;99.90;;;;;;4935646;29;20288;-80
2023/03/27 11:24:22;;;;;;;3.30;1.90;;;8.50;99.90;;;;;;4920043;29;20189;-81
2023/03/27 11:26:53;;;;;;;3.65;2.20;;;8.00;99.90;;;;;;4917779;29;20454;-78
2023/03/27 11:29:47;;;;;;;6.77;2.23;;;8.00;99.90;;;;;;4965010;23;20324;-77
2023/03/27 11:32:33;;;;;;;3.77;2.10;;;7.20;99.90;;;;;;4952323;28;20222;-73
2023/03/27 11:35:12;;;;;;;3.67;2.23;;;7.60;99.90;;;;;;4957322;28;20202;-75
2023/03/27 11:37:58;;;;;;;3.90;2.43;;;7.60;99.90;;;;;;4941205;28;20435;-71
2023/03/27 11:40:33;;;;;;;4.27;2.50;;;7.90;99.90;;;;;;4952685;28;20292;-71
2023/03/27 11:43:01;;;;;;;3.07;2.30;;;8.10;99.90;;;;;;4972244;28;20639;-72
2023/03/27 11:45:54;;;;;;;6.60;2.50;;;7.80;99.90;;;;;;4956905;28;20206;-66
2023/03/27 11:48:21;;;;;;;3.83;2.30;;;7.00;99.90;;;;;;4974048;28;20243;-69
2023/03/27 11:51:00;;;;;;;4.23;2.70;;;6.90;99.90;;;;;;4941280;28;20249;-69
2023/03/27 11:53:42;;;;;;;3.73;2.00;;;6.60;99.90;;;;;;4956702;28;20223;-69
2023/03/27 11:56:33;;;;;;;4.70;2.00;;;6.50;99.90;;;;;;4956681;28;20207;-69
2023/03/27 11:59:09;;;;;;;4.17;2.10;;;6.80;99.90;;;;;;4974275;28;20220;-69
2023/03/27 12:01:46;;;;;;;4.30;2.00;;;7.30;99.90;;;;;;4974228;28;20277;-69
2023/03/27 12:04:45;;;;;;;3.10;1.93;;;7.60;99.90;;;;;;4950363;28;20213;-69
2023/03/27 12:07:39;;;;;;;3.53;2.10;;;7.70;99.90;;;;;;4857807;29;20220;-68
2023/03/27 12:10:25;;;;;;;6.67;2.40;;;7.00;99.90;;;;;;4876895;29;20271;-69
2023/03/27 12:13:26;;;;;;;4.10;2.13;;;6.80;99.90;;;;;;4852815;29;20229;-69
2023/03/27 12:16:29;;;;;;;5.33;2.47;;;6.90;99.90;;;;;;4872068;29;20208;-69
2023/03/27 12:19:24;;;;;;;3.47;2.20;;;7.00;99.90;;;;;;4876547;29;20197;-71
2023/03/27 12:21:59;;;;;;;2.77;1.97;;;7.40;99.90;;;;;;4876740;29;20200;-70
2023/03/27 12:24:58;;;;;;;2.33;1.90;;;7.50;99.90;;;;;;4873842;29;20215;-69
2023/03/27 12:27:58;;;;;;;4.30;2.03;;;7.90;99.90;;;;;;4875312;29;20211;-71
2023/03/27 12:30:57;;;;;;;4.87;2.13;;;7.50;99.90;;;;;;4820336;29;20233;-72
2023/03/27 12:33:58;;;;;;;4.80;2.30;;;7.80;99.90;;;;;;4803607;29;20524;-70
2023/03/27 12:36:30;;;;;;;3.43;2.00;;;8.20;99.90;;;;;;4818178;29;20287;-72
2023/03/27 12:38:58;;;;;;;2.93;2.10;;;8.10;99.90;;;;;;4795043;29;20211;-70
2023/03/27 12:41:30;;;;;;;4.07;2.10;;;8.40;99.90;;;;;;4805054;29;20217;-73
2023/03/27 12:43:59;;;;;;;3.40;2.20;;;8.60;99.90;;;;;;4844846;29;20196;-74
2023/03/27 12:47:14;;;;;;;4.13;2.27;;;8.80;99.90;;;;;;4876049;29;20671;-75
2023/03/27 12:49:44;;;;;;;3.57;1.90;;;8.90;99.90;;;;;;4865420;29;20224;-73
2023/03/27 12:52:14;;;;;;;3.55;1.80;;;9.20;99.90;;;;;;4878101;29;20447;-74
2023/03/27 12:55:28;;;;;;;2.13;1.77;;;9.40;99.90;;;;;;4894434;29;20204;-74
2023/03/27 12:57:55;;;;;;;3.25;1.98;;;9.10;99.90;;;;;;4796539;29;21015;-74
2023/03/27 13:00:25;;;;;;;4.00;1.83;;;8.50;99.90;;;;;;4805656;29;20272;-71
2023/03/27 13:03:15;;;;;;;4.20;1.87;;;8.10;99.90;;;;;;4811968;29;20206;-74
2023/03/27 13:05:56;;;;;;;4.07;2.20;;;8.20;99.90;;;;;;4804056;29;20576;-74
2023/03/27 13:08:50;;;;;;;5.73;1.77;;;7.90;99.90;;;;;;4853191;29;20208;-72
2023/03/27 13:11:25;;;;;;;3.35;2.10;;;8.20;99.90;;;;;;4851280;29;20455;-71
2023/03/27 13:14:14;;;;;;;4.53;2.00;;;8.00;99.90;;;;;;4839520;29;20745;-71
2023/03/27 13:17:01;;;;;;;3.17;2.00;;;8.00;99.90;;;;;;4835039;29;20468;-74
2023/03/27 13:19:59;;;;;;;3.40;2.20;;;7.30;99.90;;;;;;4825445;29;20963;-73
2023/03/27 13:22:33;;;;;;;2.73;1.83;;;7.20;99.90;;;;;;4847648;29;20213;-71
2023/03/27 13:25:06;;;;;;;2.33;1.70;;;7.00;99.90;;;;;;4841592;29;20219;-76
2023/03/27 13:28:09;;;;;;;2.53;1.90;;;7.40;99.90;;;;;;4841513;29;20213;-82
2023/03/27 13:30:50;;;;;;;3.33;1.73;;;7.30;99.90;;;;;;4842514;29;20644;-76